Current | Forecast
Updated: 11:30 PM EEST on August 22, 2017
Observed at L'viv, Poland
Temperature 11°C
Humidity 100%
Dew Point 11°C
Wind North at 0 km/h
Pressure 1015 hPa (Steady)
Conditions Mostly Cloudy
Visibility 10.0 kilometers
UV 0 out of 16
Clouds Mostly Cloudy (BKN) : 1310 m
Yesterday's Maximum 20°C
Yesterday's Minimum 11°C approx.
Yesterday's Heating Degree Days 5 approx.
Sunrise5:27 AM CEST
Sunset7:32 PM CEST
Moon Rise5:58 AM CEST
Moon Set8:00 PM CEST
Moon PhaseMoon Phase
New Moon
Raw METARMETAR UKLL 222030Z 00000MPS 9999 BKN043 11/11 Q1015 R31/CLRD// NOSIG


Monday
. High: 62° F.
Tuesday
. High: 64° F.
Wednesday
. High: 75° F.
Thursday
. High: 78° F.
Friday
. High: 68° F.
Saturday
. High: 64° F.
Sunday
. High: 68° F.
Monday
. High: 64° F.

Units: English | Metric

Find the Weather for any City, State or Zipcode, or Country:

U.S. State List | Severe Weather | Tropical Storms | Ski Conditions
United States | Canada | Central America | South America | Asia | Europe | Australia | Africa | Islands

Weather Underground

© Copyright 2017
The Weather Company, LLC